createdAt,value
2022-08-17T00:02:26.600Z,25.67
2022-08-17T00:04:54.540Z,25.66
2022-08-17T00:07:21.699Z,25.65
2022-08-17T00:09:48.754Z,25.69
2022-08-17T00:12:51.380Z,25.67
2022-08-17T00:15:04.235Z,25.63
2022-08-17T00:17:31.304Z,25.63
2022-08-17T00:19:58.331Z,25.61
2022-08-17T00:22:33.778Z,25.62
2022-08-17T00:25:04.587Z,25.65
2022-08-17T00:27:31.635Z,25.67
2022-08-17T00:29:58.706Z,25.66
2022-08-17T00:33:14.778Z,25.65
2022-08-17T00:35:16.263Z,25.63
2022-08-17T00:37:43.460Z,25.63
2022-08-17T00:40:13.453Z,25.62
2022-08-17T00:42:41.303Z,25.57
2022-08-17T00:45:11.300Z,25.45
2022-08-17T00:47:38.632Z,25.35
2022-08-17T00:50:10.503Z,25.32
2022-08-17T00:52:48.636Z,25.31
2022-08-17T00:55:15.818Z,25.28
2022-08-17T00:57:53.357Z,25.27
2022-08-17T01:00:26.944Z,25.16
2022-08-17T01:03:07.967Z,25.18
2022-08-17T01:05:42.305Z,25.19
2022-08-17T01:08:13.167Z,25.22
2022-08-17T01:10:59.259Z,25.31
2022-08-17T01:13:40.339Z,25.36
2022-08-17T01:16:16.195Z,25.36
2022-08-17T01:18:46.083Z,25.31
2022-08-17T01:21:20.178Z,25.26
2022-08-17T01:23:47.316Z,25.29
2022-08-17T01:26:14.368Z,25.28
2022-08-17T01:28:53.852Z,25.22
2022-08-17T01:31:24.676Z,25.12
2022-08-17T01:33:52.056Z,25.07
2022-08-17T01:36:21.109Z,25.01
2022-08-17T01:38:48.229Z,24.84
2022-08-17T01:41:16.786Z,24.79
2022-08-17T01:43:52.414Z,24.79
2022-08-17T01:46:27.362Z,24.80
2022-08-17T01:48:56.585Z,24.84
2022-08-17T01:51:30.642Z,24.84
2022-08-17T01:54:01.002Z,24.83
2022-08-17T01:56:30.468Z,24.83
2022-08-17T01:58:57.766Z,24.76
2022-08-17T02:01:28.390Z,24.79
2022-08-17T02:04:00.441Z,24.82
2022-08-17T02:06:31.582Z,24.81
2022-08-17T02:09:16.862Z,24.78
2022-08-17T02:11:45.327Z,24.72
2022-08-17T02:14:14.081Z,24.68
2022-08-17T02:16:41.692Z,24.67
2022-08-17T02:19:12.322Z,24.67
2022-08-17T02:21:41.604Z,24.67
2022-08-17T02:24:11.993Z,24.67
2022-08-17T02:26:39.204Z,24.68
2022-08-17T02:29:06.297Z,24.68
2022-08-17T02:31:33.800Z,24.67
2022-08-17T02:34:04.678Z,24.68
2022-08-17T02:36:35.861Z,24.64
2022-08-17T02:39:04.842Z,24.64
2022-08-17T02:41:32.787Z,24.67
2022-08-17T02:44:00.319Z,24.65
2022-08-17T02:46:28.519Z,24.62
2022-08-17T02:48:55.986Z,24.63
2022-08-17T02:51:23.149Z,24.67
2022-08-17T02:53:50.322Z,24.66
2022-08-17T02:56:17.518Z,24.63
2022-08-17T02:58:44.662Z,24.59
2022-08-17T03:01:12.929Z,24.63
2022-08-17T03:03:40.509Z,24.61
2022-08-17T03:06:08.525Z,24.57
2022-08-17T03:08:36.668Z,24.54
2022-08-17T03:11:04.142Z,24.50
2022-08-17T03:13:31.516Z,24.42
2022-08-17T03:15:58.990Z,24.34
2022-08-17T03:18:27.369Z,24.31
2022-08-17T03:20:56.867Z,24.26
2022-08-17T03:23:25.551Z,24.22
2022-08-17T03:25:53.940Z,24.22
2022-08-17T03:28:23.168Z,24.24
2022-08-17T03:30:51.827Z,24.23
2022-08-17T03:33:19.623Z,24.25
2022-08-17T03:35:47.275Z,24.23
2022-08-17T03:38:15.998Z,24.22
2022-08-17T03:40:56.514Z,24.24
2022-08-17T03:43:30.015Z,24.23
2022-08-17T03:46:28.918Z,24.20
2022-08-17T03:49:23.190Z,24.21
2022-08-17T03:52:08.852Z,24.20
2022-08-17T03:54:54.516Z,24.20
2022-08-17T03:57:21.790Z,24.19
2022-08-17T03:59:48.895Z,24.21
2022-08-17T04:02:24.445Z,24.22
2022-08-17T04:04:52.651Z,24.20
2022-08-17T04:07:23.071Z,24.18
2022-08-17T04:09:50.626Z,24.15
2022-08-17T04:12:20.122Z,24.10
2022-08-17T04:14:52.659Z,24.09
2022-08-17T04:17:26.295Z,24.06
2022-08-17T04:19:54.166Z,24.03
2022-08-17T04:22:31.347Z,24.00
2022-08-17T04:25:03.215Z,23.95
2022-08-17T04:27:30.239Z,24.00
2022-08-17T04:29:57.285Z,23.99
2022-08-17T04:33:03.747Z,23.97
2022-08-17T04:35:11.624Z,23.99
2022-08-17T04:37:38.758Z,24.00
2022-08-17T04:40:25.950Z,24.02
2022-08-17T04:43:03.118Z,24.03
2022-08-17T04:45:32.049Z,24.08
2022-08-17T04:48:00.329Z,24.10
2022-08-17T04:50:27.845Z,24.13
2022-08-17T04:52:55.021Z,24.14
2022-08-17T04:55:22.668Z,24.17
2022-08-17T04:57:49.698Z,24.20
2022-08-17T05:00:16.814Z,24.23
2022-08-17T05:02:51.202Z,24.24
2022-08-17T05:05:25.291Z,24.26
2022-08-17T05:07:54.780Z,24.27
2022-08-17T05:10:23.236Z,24.27
2022-08-17T05:13:09.512Z,24.23
2022-08-17T05:15:39.520Z,24.18
2022-08-17T05:18:12.704Z,24.17
2022-08-17T05:20:40.673Z,24.11
2022-08-17T05:23:11.457Z,24.03
2022-08-17T05:25:48.300Z,23.97
2022-08-17T05:28:18.347Z,23.97
2022-08-17T05:30:49.212Z,23.95
2022-08-17T05:33:26.719Z,23.92
2022-08-17T05:35:55.464Z,23.90
2022-08-17T05:38:24.651Z,23.94
2022-08-17T05:40:52.809Z,23.97
2022-08-17T05:43:23.458Z,23.99
2022-08-17T05:46:22.777Z,24.07
2022-08-17T05:48:59.437Z,24.10
2022-08-17T05:51:38.453Z,24.11
2022-08-17T05:54:36.204Z,24.14
2022-08-17T05:57:18.876Z,24.11
2022-08-17T06:00:07.898Z,24.08
2022-08-17T06:03:01.664Z,24.12
2022-08-17T06:06:06.259Z,24.13
2022-08-17T06:08:33.253Z,24.14
2022-08-17T06:11:26.061Z,24.15
2022-08-17T06:14:28.587Z,24.12
2022-08-17T06:17:01.243Z,24.11
2022-08-17T06:19:39.271Z,24.13
2022-08-17T06:22:08.985Z,24.13
2022-08-17T06:24:46.729Z,24.12
2022-08-17T06:27:30.665Z,24.13
2022-08-17T06:30:02.727Z,24.11
2022-08-17T06:32:30.047Z,24.12
2022-08-17T06:35:07.655Z,24.11
2022-08-17T06:37:50.964Z,24.09
2022-08-17T06:40:46.110Z,24.12
2022-08-17T06:43:25.089Z,24.10
2022-08-17T06:46:19.428Z,24.12
2022-08-17T06:49:12.888Z,24.13
2022-08-17T06:52:12.608Z,24.13
2022-08-17T06:55:06.526Z,24.12
2022-08-17T06:57:37.992Z,24.13
2022-08-17T07:00:13.977Z,24.13
2022-08-17T07:02:53.163Z,24.13
2022-08-17T07:05:24.638Z,24.08
2022-08-17T07:08:16.919Z,24.06
2022-08-17T07:10:49.141Z,24.09
2022-08-17T07:13:34.110Z,24.14
2022-08-17T07:16:37.736Z,24.18
2022-08-17T07:19:06.291Z,24.21
2022-08-17T07:22:07.621Z,24.26
2022-08-17T07:24:44.871Z,24.25
2022-08-17T07:27:33.300Z,24.30
2022-08-17T07:30:11.272Z,24.32
2022-08-17T07:32:54.103Z,24.32
2022-08-17T07:35:40.941Z,24.26
2022-08-17T07:38:28.654Z,24.25
2022-08-17T07:41:02.517Z,24.29
2022-08-17T07:43:35.635Z,24.30
2022-08-17T07:46:30.469Z,24.30
2022-08-17T07:49:17.717Z,24.27
2022-08-17T07:51:45.863Z,24.32
2022-08-17T07:54:14.869Z,24.30
2022-08-17T07:57:04.925Z,24.26
2022-08-17T07:59:43.334Z,24.22
2022-08-17T08:02:29.521Z,24.26
2022-08-17T08:05:06.672Z,24.27
2022-08-17T08:07:52.541Z,24.17
2022-08-17T08:10:28.577Z,24.16
2022-08-17T08:13:22.871Z,24.14
2022-08-17T08:15:54.654Z,24.14
2022-08-17T08:18:38.567Z,24.15
2022-08-17T08:21:22.512Z,24.13
2022-08-17T08:24:02.392Z,24.13
2022-08-17T08:26:49.855Z,24.14
2022-08-17T08:29:39.905Z,24.19
2022-08-17T08:32:22.157Z,24.23
2022-08-17T08:35:09.271Z,24.26
2022-08-17T08:37:50.234Z,24.31
2022-08-17T08:40:41.455Z,24.33
2022-08-17T08:43:27.577Z,24.31
2022-08-17T08:46:00.361Z,24.38
2022-08-17T08:49:10.058Z,24.47
2022-08-17T08:51:58.112Z,24.56
2022-08-17T08:54:43.825Z,24.66
2022-08-17T08:57:30.935Z,24.74
2022-08-17T09:00:15.014Z,24.84
2022-08-17T09:03:17.663Z,24.91
2022-08-17T09:06:33.417Z,24.98
2022-08-17T09:09:35.279Z,25.05
2022-08-17T09:12:05.403Z,25.05
2022-08-17T09:14:45.210Z,25.07
2022-08-17T09:17:25.770Z,25.10
2022-08-17T09:20:28.047Z,25.06
2022-08-17T09:26:06.665Z,24.75
2022-08-17T09:28:37.262Z,24.64
2022-08-17T09:31:11.349Z,24.58
2022-08-17T09:33:47.369Z,24.57
2022-08-17T09:36:28.379Z,24.53
2022-08-17T09:39:06.395Z,24.50
2022-08-17T09:41:51.553Z,24.44
2022-08-17T09:44:43.203Z,24.41
2022-08-17T09:47:46.882Z,24.42
2022-08-17T09:51:05.299Z,24.47
2022-08-17T09:53:27.179Z,24.47
2022-08-17T09:56:15.331Z,24.45
2022-08-17T09:58:55.823Z,24.41
2022-08-17T10:01:36.999Z,24.49
2022-08-17T10:04:29.670Z,24.54
2022-08-17T10:07:07.368Z,24.46
2022-08-17T10:09:40.144Z,24.41
2022-08-17T10:12:20.558Z,24.33
2022-08-17T10:15:07.993Z,24.24
2022-08-17T10:18:08.821Z,24.42
2022-08-17T10:21:19.401Z,24.63
2022-08-17T10:24:09.573Z,24.78
2022-08-17T10:26:55.958Z,24.88
2022-08-17T10:29:48.499Z,25.06
2022-08-17T10:32:41.153Z,25.16
2022-08-17T10:35:26.658Z,25.21
2022-08-17T10:38:25.778Z,25.22
2022-08-17T10:41:13.561Z,25.21
2022-08-17T10:44:30.633Z,25.25
2022-08-17T10:46:57.793Z,25.27
2022-08-17T10:49:33.405Z,25.32
2022-08-17T10:52:25.072Z,25.36
2022-08-17T10:54:58.026Z,25.41
2022-08-17T10:57:34.954Z,25.37
2022-08-17T11:00:19.007Z,25.39
2022-08-17T11:02:52.803Z,25.43
2022-08-17T11:05:33.891Z,25.43
2022-08-17T11:08:19.038Z,25.49
2022-08-17T11:10:58.741Z,25.59
2022-08-17T11:14:04.927Z,25.70
2022-08-17T11:17:05.747Z,25.75
2022-08-17T11:19:58.448Z,25.77
2022-08-17T11:22:58.417Z,25.82
2022-08-17T11:25:44.093Z,25.93
2022-08-17T11:28:27.215Z,25.98
2022-08-17T11:31:03.696Z,26.04
2022-08-17T11:33:36.845Z,26.08
2022-08-17T11:36:33.053Z,26.14
2022-08-17T11:39:05.003Z,26.16
2022-08-17T11:41:45.897Z,26.13
2022-08-17T11:44:42.500Z,26.10
2022-08-17T11:47:33.938Z,26.07
2022-08-17T11:50:28.950Z,26.08
2022-08-17T11:52:56.189Z,26.10
2022-08-17T11:55:36.298Z,26.08
2022-08-17T11:58:04.441Z,26.10
2022-08-17T12:01:20.709Z,26.10
2022-08-17T12:03:57.306Z,26.08
2022-08-17T12:06:30.300Z,26.16
2022-08-17T12:09:27.804Z,26.21
2022-08-17T12:12:12.799Z,26.23
2022-08-17T12:15:09.491Z,26.32
2022-08-17T12:17:41.897Z,26.41
2022-08-17T12:20:29.616Z,26.49
2022-08-17T12:23:21.770Z,26.52
2022-08-17T12:26:05.634Z,26.59
2022-08-17T12:28:37.349Z,26.62
2022-08-17T12:31:07.990Z,26.70
2022-08-17T12:33:37.534Z,26.77
2022-08-17T12:36:19.863Z,26.81
2022-08-17T12:38:57.599Z,26.76
2022-08-17T12:41:34.422Z,26.79
2022-08-17T12:44:09.951Z,26.82
2022-08-17T12:47:02.190Z,26.78
2022-08-17T12:49:31.165Z,26.78
2022-08-17T12:52:15.025Z,26.73
2022-08-17T12:54:44.956Z,26.70
2022-08-17T12:57:21.798Z,26.71
2022-08-17T12:59:55.681Z,26.76
2022-08-17T13:02:31.577Z,26.83
2022-08-17T13:05:01.288Z,26.82
2022-08-17T13:07:36.228Z,26.77
2022-08-17T13:10:04.699Z,26.75
2022-08-17T13:12:35.341Z,26.70
2022-08-17T13:15:02.567Z,26.73
2022-08-17T13:17:36.238Z,26.79
2022-08-17T13:20:06.453Z,26.83
2022-08-17T13:22:33.878Z,26.92
2022-08-17T13:25:05.679Z,26.99
2022-08-17T13:27:34.015Z,26.99
2022-08-17T13:30:12.579Z,27.05
2022-08-17T13:32:47.615Z,27.09
2022-08-17T13:35:39.593Z,27.09
2022-08-17T13:38:36.197Z,27.09
2022-08-17T13:41:06.640Z,27.22
2022-08-17T13:43:45.170Z,27.33
2022-08-17T13:46:20.784Z,27.40
2022-08-17T13:49:02.643Z,27.41
2022-08-17T13:51:50.431Z,27.46
2022-08-17T13:54:31.472Z,27.48
2022-08-17T13:57:06.534Z,27.57
2022-08-17T13:59:53.079Z,27.62
2022-08-17T14:02:21.794Z,27.63
2022-08-17T14:04:49.637Z,27.66
2022-08-17T14:07:17.023Z,27.76
2022-08-17T14:09:52.606Z,27.77
2022-08-17T14:12:25.262Z,27.76
2022-08-17T14:14:53.643Z,27.83
2022-08-17T14:17:23.078Z,27.92
2022-08-17T14:19:51.464Z,28.03
2022-08-17T14:22:40.505Z,28.14
2022-08-17T14:25:10.485Z,28.20
2022-08-17T14:27:47.488Z,28.22
2022-08-17T14:30:20.681Z,28.19
2022-08-17T14:32:52.239Z,28.23
2022-08-17T14:35:22.196Z,28.26
2022-08-17T14:37:50.483Z,28.43
2022-08-17T14:40:21.114Z,28.57
2022-08-17T14:42:48.525Z,28.67
2022-08-17T14:45:30.487Z,28.75
2022-08-17T14:48:10.138Z,28.97
2022-08-17T14:50:41.182Z,29.23
2022-08-17T14:53:10.175Z,29.34
2022-08-17T14:55:40.083Z,29.49
2022-08-17T14:58:08.693Z,29.76
2022-08-17T15:00:36.397Z,30.03
2022-08-17T15:03:03.726Z,29.81
2022-08-17T15:05:34.457Z,29.16
2022-08-17T15:08:02.762Z,28.66
2022-08-17T15:10:30.705Z,28.88
2022-08-17T15:12:58.325Z,28.35
2022-08-17T15:15:26.219Z,27.96
2022-08-17T15:17:53.505Z,27.90
2022-08-17T15:20:24.968Z,27.78
2022-08-17T15:22:56.380Z,27.70
2022-08-17T15:25:25.685Z,27.77
2022-08-17T15:27:52.994Z,27.83
2022-08-17T15:30:20.673Z,27.83
2022-08-17T15:32:54.059Z,27.89
2022-08-17T15:35:28.109Z,27.96
2022-08-17T15:38:11.062Z,27.99
2022-08-17T15:40:49.679Z,28.03
2022-08-17T15:43:27.347Z,28.11
2022-08-17T15:46:00.463Z,28.17
2022-08-17T15:48:42.171Z,28.23
2022-08-17T15:51:15.925Z,28.21
2022-08-17T15:53:43.625Z,28.35
2022-08-17T15:56:11.513Z,28.47
2022-08-17T15:58:39.047Z,28.60
2022-08-17T16:01:14.901Z,28.57
2022-08-17T16:04:04.112Z,28.53
2022-08-17T16:06:32.030Z,28.58
2022-08-17T16:09:00.582Z,28.52
2022-08-17T16:11:27.668Z,28.41
2022-08-17T16:13:56.053Z,28.45
2022-08-17T16:16:24.014Z,28.30
2022-08-17T16:18:54.505Z,28.15
2022-08-17T16:21:26.127Z,27.96
2022-08-17T16:23:59.293Z,27.82
2022-08-17T16:26:28.031Z,27.60
2022-08-17T16:28:55.776Z,27.32
2022-08-17T16:31:23.031Z,27.21
2022-08-17T16:34:16.047Z,27.17
2022-08-17T16:36:38.537Z,27.14
2022-08-17T16:39:05.861Z,27.14
2022-08-17T16:41:48.048Z,27.11
2022-08-17T16:44:17.024Z,27.08
2022-08-17T16:46:45.802Z,27.10
2022-08-17T16:49:31.915Z,27.05
2022-08-17T16:52:03.621Z,26.93
2022-08-17T16:54:30.925Z,26.80
2022-08-17T16:56:57.954Z,26.67
2022-08-17T16:59:30.782Z,26.55
2022-08-17T17:02:05.139Z,26.43
2022-08-17T17:04:34.988Z,26.41
2022-08-17T17:07:38.027Z,26.37
2022-08-17T17:10:20.194Z,26.27
2022-08-17T17:13:02.208Z,26.28
2022-08-17T17:15:40.738Z,26.26
2022-08-17T17:18:11.875Z,26.23
2022-08-17T17:20:50.605Z,26.18
2022-08-17T17:23:43.152Z,26.25
2022-08-17T17:26:19.499Z,26.60
2022-08-17T17:29:11.137Z,26.41
2022-08-17T17:31:56.985Z,26.30
2022-08-17T17:34:26.472Z,26.25
2022-08-17T17:36:58.164Z,26.08
2022-08-17T17:39:43.897Z,26.04
2022-08-17T17:42:14.848Z,25.91
2022-08-17T17:45:09.187Z,25.78
2022-08-17T17:47:37.225Z,25.65
2022-08-17T17:50:06.253Z,25.54
2022-08-17T17:52:41.397Z,25.44
2022-08-17T17:55:18.826Z,25.37
2022-08-17T17:58:06.754Z,25.30
2022-08-17T18:00:38.108Z,25.21
2022-08-17T18:03:43.260Z,25.05
2022-08-17T18:06:34.331Z,24.95
2022-08-17T18:09:23.445Z,24.83
2022-08-17T18:11:59.131Z,24.78
2022-08-17T18:14:51.308Z,24.73
2022-08-17T18:17:18.572Z,24.71
2022-08-17T18:19:47.395Z,24.76
2022-08-17T18:22:15.756Z,24.97
2022-08-17T18:24:46.086Z,26.13
2022-08-17T18:27:38.821Z,27.09
2022-08-17T18:30:14.739Z,27.68
2022-08-17T18:32:44.785Z,27.42
2022-08-17T18:35:11.779Z,27.18
2022-08-17T18:37:47.909Z,27.45
2022-08-17T18:40:29.884Z,27.43
2022-08-17T18:43:24.958Z,26.82
2022-08-17T18:45:54.399Z,26.42
2022-08-17T18:48:26.825Z,26.36
2022-08-17T18:50:59.706Z,26.25
2022-08-17T18:53:33.943Z,26.02
2022-08-17T18:56:30.484Z,25.73
2022-08-17T18:59:22.318Z,25.47
2022-08-17T19:02:27.351Z,25.28
2022-08-17T19:05:27.449Z,25.11
2022-08-17T19:07:55.084Z,25.05
2022-08-17T19:10:33.582Z,25.02
2022-08-17T19:13:24.445Z,25.07
2022-08-17T19:16:12.017Z,25.08
2022-08-17T19:19:05.234Z,25.02
2022-08-17T19:21:38.201Z,24.89
2022-08-17T19:24:20.033Z,24.76
2022-08-17T19:26:55.671Z,24.65
2022-08-17T19:29:38.853Z,24.51
2022-08-17T19:32:09.149Z,24.47
2022-08-17T19:34:38.635Z,24.40
2022-08-17T19:37:40.853Z,24.38
2022-08-17T19:40:35.151Z,24.34
2022-08-17T19:43:26.273Z,24.26
2022-08-17T19:46:12.601Z,24.21
2022-08-17T19:48:46.219Z,24.21
2022-08-17T19:51:19.172Z,24.18
2022-08-17T19:54:05.879Z,24.12
2022-08-17T19:56:56.032Z,24.11
2022-08-17T19:59:49.148Z,24.11
2022-08-17T20:02:36.149Z,24.13
2022-08-17T20:05:10.893Z,24.14
2022-08-17T20:07:53.150Z,24.17
2022-08-17T20:10:29.207Z,24.21
2022-08-17T20:13:03.501Z,24.26
2022-08-17T20:15:35.192Z,24.30
2022-08-17T20:18:07.557Z,24.32
2022-08-17T20:20:49.430Z,24.30
2022-08-17T20:23:50.232Z,24.33
2022-08-17T20:26:27.186Z,24.36
2022-08-17T20:29:37.763Z,24.38
2022-08-17T20:32:29.590Z,24.41
2022-08-17T20:35:25.534Z,24.48
2022-08-17T20:38:13.647Z,24.51
2022-08-17T20:41:01.333Z,24.54
2022-08-17T20:43:34.090Z,24.54
2022-08-17T20:46:33.377Z,24.53
2022-08-17T20:49:27.310Z,24.49
2022-08-17T20:52:08.329Z,24.52
2022-08-17T20:55:04.985Z,24.54
2022-08-17T20:57:32.402Z,24.53
2022-08-17T21:00:28.409Z,24.51
2022-08-17T21:03:27.679Z,24.52
2022-08-17T21:06:18.038Z,24.53
2022-08-17T21:08:53.916Z,24.54
2022-08-17T21:11:57.160Z,24.51
2022-08-17T21:14:41.212Z,24.57
2022-08-17T21:17:29.828Z,24.57
2022-08-17T21:20:12.081Z,24.55
2022-08-17T21:23:07.130Z,24.53
2022-08-17T21:26:03.778Z,24.57
2022-08-17T21:29:00.872Z,24.61
2022-08-17T21:32:05.542Z,24.61
2022-08-17T21:34:43.355Z,24.65
2022-08-17T21:37:19.788Z,24.66
2022-08-17T21:40:00.117Z,24.67
2022-08-17T21:42:34.728Z,24.64
2022-08-17T21:45:24.721Z,24.59
2022-08-17T21:48:14.889Z,24.57
2022-08-17T21:50:45.410Z,24.61
2022-08-17T21:53:22.554Z,24.63
2022-08-17T21:55:50.657Z,24.64
2022-08-17T21:58:40.547Z,24.62
2022-08-17T22:01:23.008Z,24.63
2022-08-17T22:04:04.692Z,24.64
2022-08-17T22:06:37.283Z,24.62
2022-08-17T22:09:43.176Z,24.62
2022-08-17T22:12:21.378Z,24.61
2022-08-17T22:15:00.904Z,24.61
2022-08-17T22:17:36.307Z,24.51
2022-08-17T22:20:15.028Z,24.48
2022-08-17T22:23:20.655Z,24.46
2022-08-17T22:26:00.325Z,24.49
2022-08-17T22:28:53.671Z,24.52
2022-08-17T22:31:30.058Z,24.54
2022-08-17T22:34:02.987Z,24.53
2022-08-17T22:36:31.299Z,24.52
2022-08-17T22:39:02.005Z,24.49
2022-08-17T22:41:34.851Z,24.45
2022-08-17T22:44:47.194Z,24.42
2022-08-17T22:47:19.272Z,24.36
2022-08-17T22:49:53.349Z,24.34
2022-08-17T22:52:57.738Z,24.33
2022-08-17T22:55:44.464Z,24.34
2022-08-17T22:58:38.365Z,24.35
2022-08-17T23:01:31.671Z,24.36
2022-08-17T23:04:01.955Z,24.35
2022-08-17T23:06:30.077Z,24.31
2022-08-17T23:08:58.030Z,24.29
2022-08-17T23:11:42.830Z,24.22
2022-08-17T23:14:16.066Z,24.19
2022-08-17T23:16:43.479Z,24.20
2022-08-17T23:19:16.339Z,24.20
2022-08-17T23:21:47.400Z,24.24
2022-08-17T23:24:20.187Z,24.23
2022-08-17T23:26:47.798Z,24.24
2022-08-17T23:29:15.061Z,24.23
2022-08-17T23:31:42.269Z,24.20
2022-08-17T23:34:13.420Z,24.24
2022-08-17T23:36:41.421Z,24.27
2022-08-17T23:39:08.611Z,24.30
2022-08-17T23:41:40.418Z,24.29
2022-08-17T23:44:07.805Z,24.27
2022-08-17T23:46:35.162Z,24.26
2022-08-17T23:49:03.419Z,24.22
2022-08-17T23:51:42.901Z,24.22
2022-08-17T23:54:43.980Z,24.22
2022-08-17T23:57:14.589Z,24.22
2022-08-17T23:59:44.054Z,24.23
